sensor_id;sensor_type;location;lat;lon;timestamp;P1;durP1;ratioP1;P2;durP2;ratioP2
61903;SDS011;47857;52.270;6.804;2023-05-10T00:00:07;7.25;;;6.30;;
61903;SDS011;47857;52.270;6.804;2023-05-10T00:02:38;7.90;;;5.40;;
61903;SDS011;47857;52.270;6.804;2023-05-10T00:05:04;6.28;;;5.45;;
61903;SDS011;47857;52.270;6.804;2023-05-10T00:07:30;9.40;;;6.30;;
61903;SDS011;47857;52.270;6.804;2023-05-10T00:09:55;9.25;;;6.50;;
61903;SDS011;47857;52.270;6.804;2023-05-10T00:12:21;7.95;;;5.68;;
61903;SDS011;47857;52.270;6.804;2023-05-10T00:14:46;7.95;;;6.40;;
61903;SDS011;47857;52.270;6.804;2023-05-10T00:17:12;7.97;;;6.93;;
61903;SDS011;47857;52.270;6.804;2023-05-10T00:19:37;8.75;;;7.22;;
61903;SDS011;47857;52.270;6.804;2023-05-10T00:22:03;9.77;;;7.65;;
61903;SDS011;47857;52.270;6.804;2023-05-10T00:24:29;9.10;;;7.35;;
61903;SDS011;47857;52.270;6.804;2023-05-10T00:26:54;9.65;;;7.78;;
61903;SDS011;47857;52.270;6.804;2023-05-10T00:29:20;10.95;;;8.70;;
61903;SDS011;47857;52.270;6.804;2023-05-10T00:31:46;9.00;;;7.47;;
61903;SDS011;47857;52.270;6.804;2023-05-10T00:34:11;9.75;;;8.20;;
61903;SDS011;47857;52.270;6.804;2023-05-10T00:36:37;11.13;;;8.88;;
61903;SDS011;47857;52.270;6.804;2023-05-10T00:39:03;10.75;;;8.30;;
61903;SDS011;47857;52.270;6.804;2023-05-10T00:41:29;11.07;;;9.18;;
61903;SDS011;47857;52.270;6.804;2023-05-10T00:43:58;10.30;;;8.88;;
61903;SDS011;47857;52.270;6.804;2023-05-10T00:46:23;10.57;;;8.90;;
61903;SDS011;47857;52.270;6.804;2023-05-10T00:48:49;11.63;;;8.73;;
61903;SDS011;47857;52.270;6.804;2023-05-10T00:51:15;12.32;;;9.00;;
61903;SDS011;47857;52.270;6.804;2023-05-10T00:53:40;11.70;;;8.60;;
61903;SDS011;47857;52.270;6.804;2023-05-10T00:56:06;11.52;;;8.85;;
61903;SDS011;47857;52.270;6.804;2023-05-10T00:58:32;10.23;;;8.80;;
61903;SDS011;47857;52.270;6.804;2023-05-10T01:00:57;11.55;;;8.93;;
61903;SDS011;47857;52.270;6.804;2023-05-10T01:03:24;10.52;;;9.00;;
61903;SDS011;47857;52.270;6.804;2023-05-10T01:05:50;12.23;;;8.25;;
61903;SDS011;47857;52.270;6.804;2023-05-10T01:08:17;10.52;;;8.45;;
61903;SDS011;47857;52.270;6.804;2023-05-10T01:10:42;9.85;;;7.95;;
61903;SDS011;47857;52.270;6.804;2023-05-10T01:13:08;10.23;;;8.40;;
61903;SDS011;47857;52.270;6.804;2023-05-10T01:15:34;8.80;;;7.68;;
61903;SDS011;47857;52.270;6.804;2023-05-10T01:18:00;10.95;;;8.13;;
61903;SDS011;47857;52.270;6.804;2023-05-10T01:20:29;8.88;;;7.97;;
61903;SDS011;47857;52.270;6.804;2023-05-10T01:25:55;10.52;;;8.85;;
61903;SDS011;47857;52.270;6.804;2023-05-10T01:36:31;10.85;;;9.32;;
61903;SDS011;47857;52.270;6.804;2023-05-10T01:46:55;11.95;;;10.02;;
61903;SDS011;47857;52.270;6.804;2023-05-10T01:49:26;13.75;;;10.30;;
61903;SDS011;47857;52.270;6.804;2023-05-10T01:51:55;14.00;;;10.55;;
61903;SDS011;47857;52.270;6.804;2023-05-10T01:54:25;14.27;;;10.95;;
61903;SDS011;47857;52.270;6.804;2023-05-10T01:56:55;14.02;;;11.00;;
61903;SDS011;47857;52.270;6.804;2023-05-10T01:59:22;12.75;;;10.65;;
61903;SDS011;47857;52.270;6.804;2023-05-10T02:01:52;16.10;;;12.05;;
61903;SDS011;47857;52.270;6.804;2023-05-10T02:04:18;16.02;;;11.68;;
61903;SDS011;47857;52.270;6.804;2023-05-10T02:06:45;15.23;;;11.68;;
61903;SDS011;47857;52.270;6.804;2023-05-10T02:09:13;14.63;;;10.98;;
61903;SDS011;47857;52.270;6.804;2023-05-10T02:11:39;13.30;;;11.07;;
61903;SDS011;47857;52.270;6.804;2023-05-10T02:14:07;15.63;;;11.70;;
61903;SDS011;47857;52.270;6.804;2023-05-10T02:16:34;18.13;;;12.85;;
61903;SDS011;47857;52.270;6.804;2023-05-10T02:19:01;18.42;;;12.32;;
61903;SDS011;47857;52.270;6.804;2023-05-10T02:21:27;16.95;;;13.10;;
61903;SDS011;47857;52.270;6.804;2023-05-10T02:23:53;16.25;;;12.82;;
61903;SDS011;47857;52.270;6.804;2023-05-10T02:26:20;18.48;;;13.93;;
61903;SDS011;47857;52.270;6.804;2023-05-10T02:28:47;19.50;;;14.48;;
61903;SDS011;47857;52.270;6.804;2023-05-10T02:31:14;23.98;;;16.73;;
61903;SDS011;47857;52.270;6.804;2023-05-10T02:33:40;22.13;;;16.17;;
61903;SDS011;47857;52.270;6.804;2023-05-10T02:36:07;30.83;;;21.58;;
61903;SDS011;47857;52.270;6.804;2023-05-10T02:38:33;22.58;;;15.55;;
61903;SDS011;47857;52.270;6.804;2023-05-10T02:40:59;25.20;;;15.85;;
61903;SDS011;47857;52.270;6.804;2023-05-10T02:43:26;39.90;;;25.83;;
61903;SDS011;47857;52.270;6.804;2023-05-10T02:45:53;30.88;;;20.80;;
61903;SDS011;47857;52.270;6.804;2023-05-10T02:48:18;21.55;;;15.52;;
61903;SDS011;47857;52.270;6.804;2023-05-10T02:50:44;21.05;;;13.98;;
61903;SDS011;47857;52.270;6.804;2023-05-10T02:53:13;18.52;;;13.90;;
61903;SDS011;47857;52.270;6.804;2023-05-10T02:55:41;22.13;;;14.45;;
61903;SDS011;47857;52.270;6.804;2023-05-10T02:58:11;19.55;;;13.57;;
61903;SDS011;47857;52.270;6.804;2023-05-10T03:00:37;19.73;;;13.20;;
61903;SDS011;47857;52.270;6.804;2023-05-10T03:03:03;21.55;;;14.52;;
61903;SDS011;47857;52.270;6.804;2023-05-10T03:05:28;19.23;;;13.57;;
61903;SDS011;47857;52.270;6.804;2023-05-10T03:07:55;19.70;;;13.40;;
61903;SDS011;47857;52.270;6.804;2023-05-10T03:10:22;20.77;;;14.38;;
61903;SDS011;47857;52.270;6.804;2023-05-10T03:15:45;19.20;;;14.18;;
61903;SDS011;47857;52.270;6.804;2023-05-10T03:18:21;23.20;;;15.02;;
61903;SDS011;47857;52.270;6.804;2023-05-10T03:20:48;26.10;;;16.00;;
61903;SDS011;47857;52.270;6.804;2023-05-10T03:23:21;23.55;;;16.15;;
61903;SDS011;47857;52.270;6.804;2023-05-10T03:25:55;25.30;;;16.15;;
61903;SDS011;47857;52.270;6.804;2023-05-10T03:28:21;24.35;;;15.82;;
61903;SDS011;47857;52.270;6.804;2023-05-10T03:30:50;29.88;;;17.85;;
61903;SDS011;47857;52.270;6.804;2023-05-10T03:33:17;30.52;;;18.63;;
61903;SDS011;47857;52.270;6.804;2023-05-10T03:35:45;33.03;;;18.40;;
61903;SDS011;47857;52.270;6.804;2023-05-10T03:38:13;35.25;;;19.92;;
61903;SDS011;47857;52.270;6.804;2023-05-10T03:40:39;40.63;;;21.65;;
61903;SDS011;47857;52.270;6.804;2023-05-10T03:43:06;36.83;;;21.92;;
61903;SDS011;47857;52.270;6.804;2023-05-10T03:45:31;32.35;;;20.25;;
61903;SDS011;47857;52.270;6.804;2023-05-10T03:47:58;43.45;;;24.08;;
61903;SDS011;47857;52.270;6.804;2023-05-10T03:50:24;45.97;;;23.80;;
61903;SDS011;47857;52.270;6.804;2023-05-10T03:52:50;40.40;;;23.13;;
61903;SDS011;47857;52.270;6.804;2023-05-10T03:55:15;41.05;;;23.50;;
61903;SDS011;47857;52.270;6.804;2023-05-10T03:57:41;49.60;;;25.73;;
61903;SDS011;47857;52.270;6.804;2023-05-10T04:00:07;43.53;;;25.00;;
61903;SDS011;47857;52.270;6.804;2023-05-10T04:02:39;51.03;;;26.05;;
61903;SDS011;47857;52.270;6.804;2023-05-10T04:05:06;48.22;;;25.90;;
61903;SDS011;47857;52.270;6.804;2023-05-10T04:07:32;42.20;;;24.85;;
61903;SDS011;47857;52.270;6.804;2023-05-10T04:09:58;47.38;;;27.02;;
61903;SDS011;47857;52.270;6.804;2023-05-10T04:12:23;56.50;;;28.27;;
61903;SDS011;47857;52.270;6.804;2023-05-10T04:14:49;46.50;;;26.00;;
61903;SDS011;47857;52.270;6.804;2023-05-10T04:17:14;50.42;;;26.83;;
61903;SDS011;47857;52.270;6.804;2023-05-10T04:19:40;47.80;;;26.85;;
61903;SDS011;47857;52.270;6.804;2023-05-10T04:22:05;50.05;;;27.70;;
61903;SDS011;47857;52.270;6.804;2023-05-10T04:24:31;48.65;;;27.30;;
61903;SDS011;47857;52.270;6.804;2023-05-10T04:26:56;50.22;;;28.05;;
61903;SDS011;47857;52.270;6.804;2023-05-10T04:29:22;53.58;;;29.52;;
61903;SDS011;47857;52.270;6.804;2023-05-10T04:31:47;49.78;;;28.00;;
61903;SDS011;47857;52.270;6.804;2023-05-10T04:34:13;59.53;;;29.75;;
61903;SDS011;47857;52.270;6.804;2023-05-10T04:36:39;58.92;;;30.17;;
61903;SDS011;47857;52.270;6.804;2023-05-10T04:39:04;58.38;;;30.27;;
61903;SDS011;47857;52.270;6.804;2023-05-10T04:41:30;61.75;;;31.23;;
61903;SDS011;47857;52.270;6.804;2023-05-10T04:43:56;66.65;;;30.63;;
61903;SDS011;47857;52.270;6.804;2023-05-10T04:46:21;65.32;;;31.08;;
61903;SDS011;47857;52.270;6.804;2023-05-10T04:48:47;73.97;;;32.95;;
61903;SDS011;47857;52.270;6.804;2023-05-10T04:51:13;61.38;;;30.88;;
61903;SDS011;47857;52.270;6.804;2023-05-10T04:53:38;74.55;;;33.30;;
61903;SDS011;47857;52.270;6.804;2023-05-10T04:56:04;82.80;;;35.20;;
61903;SDS011;47857;52.270;6.804;2023-05-10T04:58:30;78.68;;;34.53;;
61903;SDS011;47857;52.270;6.804;2023-05-10T05:00:55;90.93;;;39.05;;
61903;SDS011;47857;52.270;6.804;2023-05-10T05:03:21;95.22;;;40.40;;
61903;SDS011;47857;52.270;6.804;2023-05-10T05:05:47;88.18;;;38.08;;
61903;SDS011;47857;52.270;6.804;2023-05-10T05:08:12;91.00;;;39.88;;
61903;SDS011;47857;52.270;6.804;2023-05-10T05:10:38;91.13;;;42.50;;
61903;SDS011;47857;52.270;6.804;2023-05-10T05:13:03;92.13;;;40.25;;
61903;SDS011;47857;52.270;6.804;2023-05-10T05:15:29;95.32;;;43.67;;
61903;SDS011;47857;52.270;6.804;2023-05-10T05:17:55;87.35;;;39.25;;
61903;SDS011;47857;52.270;6.804;2023-05-10T05:20:21;72.95;;;37.00;;
61903;SDS011;47857;52.270;6.804;2023-05-10T05:22:46;89.95;;;39.47;;
61903;SDS011;47857;52.270;6.804;2023-05-10T05:25:12;80.85;;;38.58;;
61903;SDS011;47857;52.270;6.804;2023-05-10T05:27:37;90.72;;;39.70;;
61903;SDS011;47857;52.270;6.804;2023-05-10T05:30:03;95.78;;;41.72;;
61903;SDS011;47857;52.270;6.804;2023-05-10T05:32:29;91.90;;;40.25;;
61903;SDS011;47857;52.270;6.804;2023-05-10T05:34:55;87.70;;;40.72;;
61903;SDS011;47857;52.270;6.804;2023-05-10T05:37:21;83.68;;;40.50;;
61903;SDS011;47857;52.270;6.804;2023-05-10T05:39:47;94.85;;;41.42;;
61903;SDS011;47857;52.270;6.804;2023-05-10T05:42:13;89.57;;;41.92;;
61903;SDS011;47857;52.270;6.804;2023-05-10T05:44:39;88.22;;;41.42;;
61903;SDS011;47857;52.270;6.804;2023-05-10T05:47:05;88.15;;;40.63;;
61903;SDS011;47857;52.270;6.804;2023-05-10T05:49:31;87.90;;;41.95;;
61903;SDS011;47857;52.270;6.804;2023-05-10T05:52:01;93.57;;;41.83;;
61903;SDS011;47857;52.270;6.804;2023-05-10T05:54:27;86.07;;;40.90;;
61903;SDS011;47857;52.270;6.804;2023-05-10T05:56:56;84.70;;;40.30;;
61903;SDS011;47857;52.270;6.804;2023-05-10T05:59:22;85.40;;;41.20;;
61903;SDS011;47857;52.270;6.804;2023-05-10T06:01:47;85.43;;;40.58;;
61903;SDS011;47857;52.270;6.804;2023-05-10T06:04:13;87.95;;;40.65;;
61903;SDS011;47857;52.270;6.804;2023-05-10T06:06:39;85.32;;;41.15;;
61903;SDS011;47857;52.270;6.804;2023-05-10T06:09:04;86.03;;;41.60;;
61903;SDS011;47857;52.270;6.804;2023-05-10T06:11:30;81.20;;;40.08;;
61903;SDS011;47857;52.270;6.804;2023-05-10T06:14:00;89.95;;;42.08;;
61903;SDS011;47857;52.270;6.804;2023-05-10T06:16:26;75.95;;;39.47;;
61903;SDS011;47857;52.270;6.804;2023-05-10T06:18:52;91.22;;;41.25;;
61903;SDS011;47857;52.270;6.804;2023-05-10T06:21:18;81.13;;;40.38;;
61903;SDS011;47857;52.270;6.804;2023-05-10T06:23:43;81.88;;;40.67;;
61903;SDS011;47857;52.270;6.804;2023-05-10T06:26:09;76.55;;;39.10;;
61903;SDS011;47857;52.270;6.804;2023-05-10T06:28:34;82.38;;;39.17;;
61903;SDS011;47857;52.270;6.804;2023-05-10T06:31:00;78.55;;;39.40;;
61903;SDS011;47857;52.270;6.804;2023-05-10T06:33:25;67.88;;;37.28;;
61903;SDS011;47857;52.270;6.804;2023-05-10T06:35:51;71.78;;;37.15;;
61903;SDS011;47857;52.270;6.804;2023-05-10T06:38:17;71.65;;;36.58;;
61903;SDS011;47857;52.270;6.804;2023-05-10T06:40:42;71.00;;;37.67;;
61903;SDS011;47857;52.270;6.804;2023-05-10T06:43:08;72.53;;;38.22;;
61903;SDS011;47857;52.270;6.804;2023-05-10T06:45:34;75.00;;;37.55;;
61903;SDS011;47857;52.270;6.804;2023-05-10T06:47:59;74.50;;;38.35;;
61903;SDS011;47857;52.270;6.804;2023-05-10T06:50:26;79.35;;;37.88;;
61903;SDS011;47857;52.270;6.804;2023-05-10T06:52:51;70.43;;;36.65;;
61903;SDS011;47857;52.270;6.804;2023-05-10T06:55:17;77.78;;;37.75;;
61903;SDS011;47857;52.270;6.804;2023-05-10T06:57:42;76.43;;;38.17;;
61903;SDS011;47857;52.270;6.804;2023-05-10T07:00:08;74.22;;;37.00;;
61903;SDS011;47857;52.270;6.804;2023-05-10T07:02:36;80.15;;;38.75;;
61903;SDS011;47857;52.270;6.804;2023-05-10T07:05:01;64.80;;;35.47;;
61903;SDS011;47857;52.270;6.804;2023-05-10T07:07:27;72.18;;;36.83;;
61903;SDS011;47857;52.270;6.804;2023-05-10T07:09:53;76.18;;;37.58;;
61903;SDS011;47857;52.270;6.804;2023-05-10T07:12:18;72.00;;;37.40;;
61903;SDS011;47857;52.270;6.804;2023-05-10T07:14:44;71.70;;;36.42;;
61903;SDS011;47857;52.270;6.804;2023-05-10T07:17:10;65.35;;;35.42;;
61903;SDS011;47857;52.270;6.804;2023-05-10T07:19:35;68.35;;;35.10;;
61903;SDS011;47857;52.270;6.804;2023-05-10T07:22:01;66.28;;;36.10;;
61903;SDS011;47857;52.270;6.804;2023-05-10T07:24:26;63.30;;;35.17;;
61903;SDS011;47857;52.270;6.804;2023-05-10T07:26:52;70.95;;;37.88;;
61903;SDS011;47857;52.270;6.804;2023-05-10T07:29:17;68.45;;;37.17;;
61903;SDS011;47857;52.270;6.804;2023-05-10T07:31:43;65.63;;;36.85;;
61903;SDS011;47857;52.270;6.804;2023-05-10T07:34:08;66.00;;;36.85;;
61903;SDS011;47857;52.270;6.804;2023-05-10T07:36:34;64.40;;;33.78;;
61903;SDS011;47857;52.270;6.804;2023-05-10T07:39:00;63.28;;;33.17;;
61903;SDS011;47857;52.270;6.804;2023-05-10T07:41:25;61.83;;;33.65;;
61903;SDS011;47857;52.270;6.804;2023-05-10T07:43:52;56.53;;;32.15;;
61903;SDS011;47857;52.270;6.804;2023-05-10T07:46:17;57.75;;;31.25;;
61903;SDS011;47857;52.270;6.804;2023-05-10T07:48:45;58.38;;;32.05;;
61903;SDS011;47857;52.270;6.804;2023-05-10T07:51:10;55.30;;;30.77;;
61903;SDS011;47857;52.270;6.804;2023-05-10T07:53:37;57.78;;;31.70;;
61903;SDS011;47857;52.270;6.804;2023-05-10T07:56:22;57.13;;;31.90;;
61903;SDS011;47857;52.270;6.804;2023-05-10T07:58:50;55.92;;;30.17;;
61903;SDS011;47857;52.270;6.804;2023-05-10T08:01:16;52.60;;;30.35;;
61903;SDS011;47857;52.270;6.804;2023-05-10T08:03:42;61.70;;;31.40;;
61903;SDS011;47857;52.270;6.804;2023-05-10T08:06:07;57.80;;;30.63;;
61903;SDS011;47857;52.270;6.804;2023-05-10T08:08:33;57.95;;;28.95;;
61903;SDS011;47857;52.270;6.804;2023-05-10T08:10:58;55.60;;;28.92;;
61903;SDS011;47857;52.270;6.804;2023-05-10T08:13:24;55.55;;;28.10;;
61903;SDS011;47857;52.270;6.804;2023-05-10T08:15:49;54.50;;;29.02;;
61903;SDS011;47857;52.270;6.804;2023-05-10T08:18:18;60.05;;;30.35;;
61903;SDS011;47857;52.270;6.804;2023-05-10T08:20:43;59.85;;;29.35;;
61903;SDS011;47857;52.270;6.804;2023-05-10T08:23:09;62.72;;;30.55;;
61903;SDS011;47857;52.270;6.804;2023-05-10T08:25:34;56.95;;;28.85;;
61903;SDS011;47857;52.270;6.804;2023-05-10T08:28:00;61.22;;;29.48;;
61903;SDS011;47857;52.270;6.804;2023-05-10T08:30:25;61.25;;;30.38;;
61903;SDS011;47857;52.270;6.804;2023-05-10T08:32:51;61.17;;;29.63;;
61903;SDS011;47857;52.270;6.804;2023-05-10T08:35:16;67.57;;;30.73;;
61903;SDS011;47857;52.270;6.804;2023-05-10T08:37:42;61.75;;;30.00;;
61903;SDS011;47857;52.270;6.804;2023-05-10T08:40:08;60.97;;;30.10;;
61903;SDS011;47857;52.270;6.804;2023-05-10T08:42:36;61.42;;;29.65;;
61903;SDS011;47857;52.270;6.804;2023-05-10T08:45:02;66.75;;;30.52;;
61903;SDS011;47857;52.270;6.804;2023-05-10T08:47:28;67.53;;;30.30;;
61903;SDS011;47857;52.270;6.804;2023-05-10T08:49:54;66.68;;;30.52;;
61903;SDS011;47857;52.270;6.804;2023-05-10T08:52:19;64.25;;;30.48;;
61903;SDS011;47857;52.270;6.804;2023-05-10T08:54:46;66.55;;;29.95;;
61903;SDS011;47857;52.270;6.804;2023-05-10T08:57:11;67.82;;;30.45;;
61903;SDS011;47857;52.270;6.804;2023-05-10T08:59:37;62.88;;;29.05;;
61903;SDS011;47857;52.270;6.804;2023-05-10T09:02:04;67.32;;;31.00;;
61903;SDS011;47857;52.270;6.804;2023-05-10T09:04:30;74.85;;;31.33;;
61903;SDS011;47857;52.270;6.804;2023-05-10T09:06:55;72.38;;;30.08;;
61903;SDS011;47857;52.270;6.804;2023-05-10T09:09:21;75.75;;;31.92;;
61903;SDS011;47857;52.270;6.804;2023-05-10T09:11:47;67.60;;;30.42;;
61903;SDS011;47857;52.270;6.804;2023-05-10T09:14:13;67.97;;;29.08;;
61903;SDS011;47857;52.270;6.804;2023-05-10T09:16:40;59.90;;;27.30;;
61903;SDS011;47857;52.270;6.804;2023-05-10T09:19:06;61.00;;;28.00;;
61903;SDS011;47857;52.270;6.804;2023-05-10T09:21:34;67.88;;;29.30;;
61903;SDS011;47857;52.270;6.804;2023-05-10T09:24:04;66.43;;;28.27;;
61903;SDS011;47857;52.270;6.804;2023-05-10T09:26:30;59.03;;;27.40;;
61903;SDS011;47857;52.270;6.804;2023-05-10T09:28:57;65.85;;;28.80;;
61903;SDS011;47857;52.270;6.804;2023-05-10T09:31:24;64.07;;;28.27;;
61903;SDS011;47857;52.270;6.804;2023-05-10T09:33:50;61.83;;;27.42;;
61903;SDS011;47857;52.270;6.804;2023-05-10T09:36:17;60.13;;;26.85;;
61903;SDS011;47857;52.270;6.804;2023-05-10T09:38:46;58.47;;;27.50;;
61903;SDS011;47857;52.270;6.804;2023-05-10T09:41:16;39.78;;;20.42;;
61903;SDS011;47857;52.270;6.804;2023-05-10T09:43:43;33.25;;;18.17;;
61903;SDS011;47857;52.270;6.804;2023-05-10T09:46:09;31.02;;;15.70;;
61903;SDS011;47857;52.270;6.804;2023-05-10T09:48:40;28.00;;;15.35;;
61903;SDS011;47857;52.270;6.804;2023-05-10T09:51:08;24.15;;;13.60;;
61903;SDS011;47857;52.270;6.804;2023-05-10T09:53:33;22.88;;;13.73;;
61903;SDS011;47857;52.270;6.804;2023-05-10T09:55:59;27.42;;;14.13;;
61903;SDS011;47857;52.270;6.804;2023-05-10T09:58:24;21.63;;;12.45;;
61903;SDS011;47857;52.270;6.804;2023-05-10T10:00:50;25.85;;;13.30;;
61903;SDS011;47857;52.270;6.804;2023-05-10T10:03:18;21.17;;;11.88;;
61903;SDS011;47857;52.270;6.804;2023-05-10T10:05:44;22.27;;;12.20;;
61903;SDS011;47857;52.270;6.804;2023-05-10T10:08:12;21.00;;;12.25;;
61903;SDS011;47857;52.270;6.804;2023-05-10T10:10:38;26.10;;;15.00;;
61903;SDS011;47857;52.270;6.804;2023-05-10T10:13:05;27.50;;;14.82;;
61903;SDS011;47857;52.270;6.804;2023-05-10T10:15:31;23.98;;;14.25;;
61903;SDS011;47857;52.270;6.804;2023-05-10T10:17:57;24.40;;;16.00;;
61903;SDS011;47857;52.270;6.804;2023-05-10T10:20:24;21.38;;;13.57;;
61903;SDS011;47857;52.270;6.804;2023-05-10T10:22:52;20.38;;;13.45;;
61903;SDS011;47857;52.270;6.804;2023-05-10T10:25:17;20.55;;;12.88;;
61903;SDS011;47857;52.270;6.804;2023-05-10T10:36:17;19.25;;;11.77;;
61903;SDS011;47857;52.270;6.804;2023-05-10T10:41:30;17.90;;;11.35;;
61903;SDS011;47857;52.270;6.804;2023-05-10T10:47:02;16.85;;;11.65;;
61903;SDS011;47857;52.270;6.804;2023-05-10T10:57:24;19.35;;;11.85;;
61903;SDS011;47857;52.270;6.804;2023-05-10T10:59:51;18.27;;;11.52;;
61903;SDS011;47857;52.270;6.804;2023-05-10T11:05:22;20.10;;;9.77;;
61903;SDS011;47857;52.270;6.804;2023-05-10T11:07:55;16.25;;;10.02;;
61903;SDS011;47857;52.270;6.804;2023-05-10T11:10:21;11.23;;;8.03;;
61903;SDS011;47857;52.270;6.804;2023-05-10T11:12:51;16.90;;;10.05;;
61903;SDS011;47857;52.270;6.804;2023-05-10T11:15:17;19.60;;;9.77;;
61903;SDS011;47857;52.270;6.804;2023-05-10T11:17:42;15.63;;;10.10;;
61903;SDS011;47857;52.270;6.804;2023-05-10T11:20:09;15.15;;;10.00;;
61903;SDS011;47857;52.270;6.804;2023-05-10T11:22:53;16.77;;;9.70;;
61903;SDS011;47857;52.270;6.804;2023-05-10T11:25:19;12.90;;;8.38;;
61903;SDS011;47857;52.270;6.804;2023-05-10T11:27:47;14.60;;;8.77;;
61903;SDS011;47857;52.270;6.804;2023-05-10T11:30:13;12.32;;;8.00;;
61903;SDS011;47857;52.270;6.804;2023-05-10T11:32:39;12.73;;;8.32;;
61903;SDS011;47857;52.270;6.804;2023-05-10T11:35:08;12.75;;;8.30;;
61903;SDS011;47857;52.270;6.804;2023-05-10T11:37:34;11.95;;;8.20;;
61903;SDS011;47857;52.270;6.804;2023-05-10T11:39:59;12.77;;;8.50;;
61903;SDS011;47857;52.270;6.804;2023-05-10T11:42:26;14.70;;;8.25;;
61903;SDS011;47857;52.270;6.804;2023-05-10T11:44:52;14.40;;;9.13;;
61903;SDS011;47857;52.270;6.804;2023-05-10T11:47:18;12.75;;;8.45;;
61903;SDS011;47857;52.270;6.804;2023-05-10T11:49:44;13.75;;;8.30;;
61903;SDS011;47857;52.270;6.804;2023-05-10T11:52:10;15.40;;;8.98;;
61903;SDS011;47857;52.270;6.804;2023-05-10T11:54:45;15.77;;;9.68;;
61903;SDS011;47857;52.270;6.804;2023-05-10T11:57:17;16.63;;;9.50;;
61903;SDS011;47857;52.270;6.804;2023-05-10T11:59:43;16.92;;;10.23;;
61903;SDS011;47857;52.270;6.804;2023-05-10T12:02:09;15.75;;;10.27;;
61903;SDS011;47857;52.270;6.804;2023-05-10T12:04:35;14.10;;;9.90;;
61903;SDS011;47857;52.270;6.804;2023-05-10T12:07:00;15.18;;;10.32;;
61903;SDS011;47857;52.270;6.804;2023-05-10T12:09:26;15.82;;;10.50;;
61903;SDS011;47857;52.270;6.804;2023-05-10T12:11:55;16.40;;;10.32;;
61903;SDS011;47857;52.270;6.804;2023-05-10T12:14:22;15.82;;;10.82;;
61903;SDS011;47857;52.270;6.804;2023-05-10T12:16:47;16.23;;;10.77;;
61903;SDS011;47857;52.270;6.804;2023-05-10T12:19:13;17.08;;;10.95;;
61903;SDS011;47857;52.270;6.804;2023-05-10T12:21:43;15.45;;;11.10;;
61903;SDS011;47857;52.270;6.804;2023-05-10T12:24:09;13.85;;;10.40;;
61903;SDS011;47857;52.270;6.804;2023-05-10T12:26:35;18.40;;;10.13;;
61903;SDS011;47857;52.270;6.804;2023-05-10T12:29:11;15.57;;;10.38;;
61903;SDS011;47857;52.270;6.804;2023-05-10T12:31:57;15.68;;;10.25;;
61903;SDS011;47857;52.270;6.804;2023-05-10T12:34:24;18.48;;;10.35;;
61903;SDS011;47857;52.270;6.804;2023-05-10T12:36:53;13.88;;;9.63;;
61903;SDS011;47857;52.270;6.804;2023-05-10T12:39:19;16.92;;;9.93;;
61903;SDS011;47857;52.270;6.804;2023-05-10T12:41:45;14.50;;;9.30;;
61903;SDS011;47857;52.270;6.804;2023-05-10T12:44:10;13.68;;;9.10;;
61903;SDS011;47857;52.270;6.804;2023-05-10T12:46:36;13.77;;;9.82;;
61903;SDS011;47857;52.270;6.804;2023-05-10T12:49:01;13.65;;;9.65;;
61903;SDS011;47857;52.270;6.804;2023-05-10T12:51:27;15.15;;;9.65;;
61903;SDS011;47857;52.270;6.804;2023-05-10T12:53:52;13.32;;;9.32;;
61903;SDS011;47857;52.270;6.804;2023-05-10T12:56:19;12.20;;;8.90;;
61903;SDS011;47857;52.270;6.804;2023-05-10T12:58:45;15.98;;;9.48;;
61903;SDS011;47857;52.270;6.804;2023-05-10T13:01:14;12.60;;;8.55;;
61903;SDS011;47857;52.270;6.804;2023-05-10T13:03:40;17.13;;;9.40;;
61903;SDS011;47857;52.270;6.804;2023-05-10T13:06:05;13.35;;;8.98;;
61903;SDS011;47857;52.270;6.804;2023-05-10T13:08:34;13.82;;;9.32;;
61903;SDS011;47857;52.270;6.804;2023-05-10T13:11:00;13.48;;;9.27;;
61903;SDS011;47857;52.270;6.804;2023-05-10T13:13:25;14.70;;;9.45;;
61903;SDS011;47857;52.270;6.804;2023-05-10T13:15:51;17.23;;;9.32;;
61903;SDS011;47857;52.270;6.804;2023-05-10T13:18:17;17.10;;;9.50;;
61903;SDS011;47857;52.270;6.804;2023-05-10T13:20:42;15.98;;;9.55;;
61903;SDS011;47857;52.270;6.804;2023-05-10T13:23:09;14.43;;;9.65;;
61903;SDS011;47857;52.270;6.804;2023-05-10T13:25:35;13.98;;;9.00;;
61903;SDS011;47857;52.270;6.804;2023-05-10T13:28:01;14.07;;;8.48;;
61903;SDS011;47857;52.270;6.804;2023-05-10T13:30:26;11.95;;;8.43;;
61903;SDS011;47857;52.270;6.804;2023-05-10T13:32:52;11.05;;;7.72;;
61903;SDS011;47857;52.270;6.804;2023-05-10T13:35:17;13.05;;;8.50;;
61903;SDS011;47857;52.270;6.804;2023-05-10T13:37:43;12.10;;;8.27;;
61903;SDS011;47857;52.270;6.804;2023-05-10T13:40:08;12.23;;;7.82;;
61903;SDS011;47857;52.270;6.804;2023-05-10T13:42:34;13.65;;;8.30;;
61903;SDS011;47857;52.270;6.804;2023-05-10T13:45:00;14.93;;;8.45;;
61903;SDS011;47857;52.270;6.804;2023-05-10T13:47:27;12.07;;;8.60;;
61903;SDS011;47857;52.270;6.804;2023-05-10T13:49:53;12.50;;;9.20;;
61903;SDS011;47857;52.270;6.804;2023-05-10T13:52:18;12.70;;;8.90;;
61903;SDS011;47857;52.270;6.804;2023-05-10T13:54:44;12.52;;;8.40;;
61903;SDS011;47857;52.270;6.804;2023-05-10T13:57:09;12.15;;;8.13;;
61903;SDS011;47857;52.270;6.804;2023-05-10T13:59:37;11.82;;;8.43;;
61903;SDS011;47857;52.270;6.804;2023-05-10T14:02:03;11.95;;;8.13;;
61903;SDS011;47857;52.270;6.804;2023-05-10T14:04:29;10.75;;;7.82;;
61903;SDS011;47857;52.270;6.804;2023-05-10T14:06:54;11.18;;;8.10;;
61903;SDS011;47857;52.270;6.804;2023-05-10T14:09:20;10.82;;;7.88;;
61903;SDS011;47857;52.270;6.804;2023-05-10T14:11:46;9.95;;;7.38;;
61903;SDS011;47857;52.270;6.804;2023-05-10T14:14:11;9.75;;;6.97;;
61903;SDS011;47857;52.270;6.804;2023-05-10T14:16:41;10.55;;;7.03;;
61903;SDS011;47857;52.270;6.804;2023-05-10T14:19:08;11.15;;;6.82;;
61903;SDS011;47857;52.270;6.804;2023-05-10T14:21:33;7.13;;;5.28;;
61903;SDS011;47857;52.270;6.804;2023-05-10T14:23:59;7.25;;;5.32;;
61903;SDS011;47857;52.270;6.804;2023-05-10T14:26:24;7.22;;;4.90;;
61903;SDS011;47857;52.270;6.804;2023-05-10T14:28:51;9.73;;;5.18;;
61903;SDS011;47857;52.270;6.804;2023-05-10T14:31:16;10.82;;;5.28;;
61903;SDS011;47857;52.270;6.804;2023-05-10T14:33:44;8.32;;;5.05;;
61903;SDS011;47857;52.270;6.804;2023-05-10T14:36:10;6.72;;;4.68;;
61903;SDS011;47857;52.270;6.804;2023-05-10T14:38:35;9.98;;;4.68;;
61903;SDS011;47857;52.270;6.804;2023-05-10T14:41:01;8.45;;;4.72;;
61903;SDS011;47857;52.270;6.804;2023-05-10T14:43:26;6.30;;;4.45;;
61903;SDS011;47857;52.270;6.804;2023-05-10T14:45:53;7.05;;;4.80;;
61903;SDS011;47857;52.270;6.804;2023-05-10T14:48:19;8.57;;;5.35;;
61903;SDS011;47857;52.270;6.804;2023-05-10T14:50:45;9.00;;;5.82;;
61903;SDS011;47857;52.270;6.804;2023-05-10T14:53:11;9.63;;;6.15;;
61903;SDS011;47857;52.270;6.804;2023-05-10T14:55:36;8.63;;;6.20;;
61903;SDS011;47857;52.270;6.804;2023-05-10T14:58:03;10.52;;;5.97;;
61903;SDS011;47857;52.270;6.804;2023-05-10T15:00:28;9.43;;;6.35;;
61903;SDS011;47857;52.270;6.804;2023-05-10T15:02:54;9.52;;;5.90;;
61903;SDS011;47857;52.270;6.804;2023-05-10T15:05:20;8.80;;;6.13;;
61903;SDS011;47857;52.270;6.804;2023-05-10T15:07:45;9.38;;;6.20;;
61903;SDS011;47857;52.270;6.804;2023-05-10T15:10:11;10.57;;;6.50;;